Time;durP1;ratioP1;P1;durP2;ratioP2;P2;SDS_P1;SDS_P2;PMS_P1;PMS_P2;Temp;Humidity;BMP_temperature;BMP_pressure;BME280_temperature;BME280_humidity;BME280_pressure;Samples;Min_cycle;Max_cycle;Signal;HPM_P1;HPM_P2
2021/10/02 00:45:09;;;;;;;61.33;57.30;;;;;;;2.77;100.00;102191.53;4957660;28;20073;-78
2021/10/02 00:47:37;;;;;;;53.95;50.28;;;;;;;2.80;100.00;102184.25;4958662;28;20052;-80
2021/10/02 00:50:05;;;;;;;56.72;53.03;;;;;;;2.82;100.00;102186.78;4955470;28;20051;-80
2021/10/02 00:52:33;;;;;;;60.05;56.33;;;;;;;2.84;100.00;102183.06;4966601;28;20047;-79
2021/10/02 00:55:00;;;;;;;58.47;54.45;;;;;;;2.86;100.00;102175.91;4950063;29;20055;-81
2021/10/02 00:57:28;;;;;;;60.67;56.35;;;;;;;2.15;100.00;102182.25;4966581;28;20055;-79
2021/10/02 00:59:55;;;;;;;58.10;53.97;;;;;;;2.69;100.00;102181.63;4967645;28;20062;-81
2021/10/02 01:02:26;;;;;;;52.13;48.42;;;;;;;2.84;100.00;102167.31;4951602;28;20063;-81
2021/10/02 01:05:09;;;;;;;51.25;47.67;;;;;;;2.84;100.00;102177.81;4952716;29;20054;-80
2021/10/02 01:07:42;;;;;;;50.90;47.60;;;;;;;2.83;100.00;102172.69;4957236;28;20062;-79
2021/10/02 01:10:21;;;;;;;52.63;49.08;;;;;;;2.68;100.00;102174.72;4957726;29;20051;-78
2021/10/02 01:13:02;;;;;;;57.55;54.13;;;;;;;2.57;100.00;102178.16;4957920;29;20075;-78
2021/10/02 01:15:37;;;;;;;51.92;48.22;;;;;;;2.55;100.00;102177.47;4949263;29;20130;-79
2021/10/02 01:18:11;;;;;;;57.83;53.83;;;;;;;2.24;100.00;102176.31;4940733;29;20540;-79
2021/10/02 01:20:51;;;;;;;59.10;55.25;;;;;;;2.24;100.00;102182.41;4945399;29;20113;-80
2021/10/02 01:23:34;;;;;;;60.40;56.40;;;;;;;2.56;100.00;102186.16;4949237;29;20142;-80
2021/10/02 01:26:19;;;;;;;55.60;51.80;;;;;;;2.51;100.00;102178.63;4944870;29;20476;-79
2021/10/02 01:28:53;;;;;;;58.92;54.92;;;;;;;2.59;100.00;102181.50;4946002;29;20212;-81
2021/10/02 01:31:23;;;;;;;59.53;55.95;;;;;;;2.65;100.00;102183.66;4945211;29;20051;-80
2021/10/02 01:33:57;;;;;;;57.60;53.67;;;;;;;2.29;100.00;102185.50;4948003;28;20444;-80
2021/10/02 01:36:40;;;;;;;54.95;51.05;;;;;;;1.77;100.00;102188.56;4946910;29;20122;-79
2021/10/02 01:47:33;;;;;;;55.20;50.40;;;;;;;2.01;100.00;102186.75;4953243;29;20070;-82
2021/10/02 01:50:01;;;;;;;49.85;45.83;;;;;;;2.62;100.00;102177.81;4950861;28;20444;-79
2021/10/02 01:52:32;;;;;;;47.83;44.10;;;;;;;2.32;100.00;102183.63;4940224;29;20469;-80
2021/10/02 01:55:02;;;;;;;52.90;48.45;;;;;;;2.62;100.00;102183.91;4948953;29;20051;-79
2021/10/02 01:57:34;;;;;;;46.28;42.45;;;;;;;2.50;100.00;102187.47;4948459;29;20051;-81
2021/10/02 02:02:52;;;;;;;54.97;51.25;;;;;;;2.16;100.00;102194.44;4990386;23;20134;-80
2021/10/02 02:05:21;;;;;;;49.85;46.38;;;;;;;2.14;100.00;102191.06;4956480;28;20051;-79
2021/10/02 02:07:52;;;;;;;49.95;46.35;;;;;;;2.32;100.00;102187.06;4939316;28;20047;-80
2021/10/02 02:10:20;;;;;;;60.50;56.08;;;;;;;2.29;100.00;102185.50;4947760;28;20498;-80
2021/10/02 02:12:49;;;;;;;62.83;58.63;;;;;;;2.38;100.00;102185.78;4946153;29;20444;-81
2021/10/02 02:15:17;;;;;;;56.00;51.92;;;;;;;2.21;100.00;102180.03;4955887;28;20118;-80
2021/10/02 02:17:49;;;;;;;57.25;53.17;;;;;;;2.27;100.00;102179.56;4954573;28;20114;-81
2021/10/02 02:20:21;;;;;;;67.05;62.55;;;;;;;2.02;100.00;102184.97;4950731;28;20047;-79
2021/10/02 02:22:49;;;;;;;79.03;73.82;;;;;;;1.89;100.00;102182.41;4955859;28;20048;-81
2021/10/02 02:25:16;;;;;;;70.28;66.03;;;;;;;2.32;100.00;102183.63;4956748;29;20135;-79
2021/10/02 02:27:43;;;;;;;54.38;50.05;;;;;;;1.90;100.00;102180.63;4957204;28;20499;-82
2021/10/02 02:30:10;;;;;;;70.55;65.45;;;;;;;1.99;100.00;102180.78;4955265;28;20428;-79
2021/10/02 02:32:39;;;;;;;75.60;70.93;;;;;;;2.24;100.00;102178.94;4948241;28;20452;-81
2021/10/02 02:35:08;;;;;;;77.70;73.20;;;;;;;2.17;100.00;102182.97;4955629;28;20196;-80
2021/10/02 02:37:35;;;;;;;82.95;77.72;;;;;;;2.10;100.00;102184.41;4956312;29;20088;-80
2021/10/02 02:40:02;;;;;;;79.97;75.10;;;;;;;2.14;100.00;102180.59;4951691;28;20439;-79
2021/10/02 02:42:28;;;;;;;68.70;64.28;;;;;;;1.88;100.00;102179.94;4951510;28;20066;-80
2021/10/02 02:44:55;;;;;;;66.55;62.05;;;;;;;2.17;100.00;102189.06;4951166;28;20130;-81
2021/10/02 02:47:25;;;;;;;77.68;72.68;;;;;;;2.14;100.00;102181.41;4952112;28;20051;-80
2021/10/02 02:50:00;;;;;;;72.80;68.65;;;;;;;2.11;100.00;102181.66;4953877;28;20054;-80
2021/10/02 02:52:38;;;;;;;73.78;69.38;;;;;;;1.84;100.00;102177.50;4944401;29;20063;-80
2021/10/02 02:55:08;;;;;;;64.43;59.75;;;;;;;1.49;100.00;102171.41;4948660;29;20059;-80
2021/10/02 02:57:41;;;;;;;67.78;63.70;;;;;;;1.71;100.00;102176.75;4948532;28;20051;-79
2021/10/02 03:00:11;;;;;;;65.22;60.80;;;;;;;1.93;100.00;102173.38;4948482;28;20058;-80
2021/10/02 03:02:43;;;;;;;68.53;63.88;;;;;;;2.04;100.00;102177.84;4952114;28;20125;-80
2021/10/02 03:05:10;;;;;;;61.10;57.20;;;;;;;1.70;100.00;102184.72;4951471;28;20054;-81
2021/10/02 03:07:44;;;;;;;70.70;66.20;;;;;;;1.86;100.00;102184.44;4955831;28;20063;-80
2021/10/02 03:10:12;;;;;;;61.53;57.72;;;;;;;1.99;100.00;102179.94;4946968;29;20551;-80
2021/10/02 03:12:42;;;;;;;79.50;74.90;;;;;;;2.04;100.00;102186.53;4955636;28;20083;-80
2021/10/02 03:15:13;;;;;;;63.33;59.30;;;;;;;2.11;100.00;102191.31;4949249;28;20138;-80
2021/10/02 03:17:41;;;;;;;77.03;72.13;;;;;;;2.09;100.00;102183.56;4940930;28;20051;-81
2021/10/02 03:20:09;;;;;;;67.72;63.83;;;;;;;2.27;100.00;102182.19;4954623;28;20106;-79
2021/10/02 03:22:37;;;;;;;79.97;75.28;;;;;;;2.09;100.00;102182.72;4945339;28;20048;-81
2021/10/02 03:25:07;;;;;;;69.25;64.80;;;;;;;2.12;100.00;102177.25;4947905;29;20044;-80
2021/10/02 03:27:35;;;;;;;69.05;64.40;;;;;;;2.45;100.00;102181.72;4955754;28;20086;-81
2021/10/02 03:30:02;;;;;;;63.80;59.75;;;;;;;2.46;100.00;102172.91;4950284;28;20543;-81
2021/10/02 03:32:29;;;;;;;65.45;61.13;;;;;;;2.68;100.00;102174.72;4952252;28;20051;-80
2021/10/02 03:34:56;;;;;;;48.38;45.03;;;;;;;2.45;100.00;102179.09;4950470;28;20109;-81
2021/10/02 03:37:23;;;;;;;57.65;54.03;;;;;;;2.83;100.00;102180.56;4939462;29;20056;-80
2021/10/02 03:39:50;;;;;;;60.22;56.42;;;;;;;2.78;100.00;102175.66;4954422;28;20058;-79
2021/10/02 03:42:21;;;;;;;54.05;50.58;;;;;;;2.64;100.00;102171.50;4954339;28;20063;-79
2021/10/02 03:44:50;;;;;;;53.80;50.42;;;;;;;2.65;100.00;102175.78;4950723;28;20496;-81
2021/10/02 03:47:19;;;;;;;53.45;50.22;;;;;;;2.88;100.00;102173.19;4954861;28;20059;-81
2021/10/02 03:49:47;;;;;;;52.85;49.35;;;;;;;2.40;100.00;102166.34;4954387;28;20534;-80
2021/10/02 03:52:14;;;;;;;54.22;50.72;;;;;;;2.47;100.00;102167.53;4955481;29;20058;-82
2021/10/02 03:54:42;;;;;;;51.90;48.40;;;;;;;2.85;100.00;102171.63;4950063;28;20380;-81
2021/10/02 03:57:09;;;;;;;57.90;54.30;;;;;;;3.04;100.00;102171.00;4949691;28;20051;-81
2021/10/02 03:59:37;;;;;;;74.95;70.45;;;;;;;3.14;100.00;102171.13;4955144;28;20047;-80
2021/10/02 04:02:04;;;;;;;66.68;62.17;;;;;;;3.16;100.00;102166.59;4953644;28;20059;-80
2021/10/02 04:04:30;;;;;;;63.15;59.25;;;;;;;3.31;100.00;102175.03;4949897;28;20452;-79
2021/10/02 04:06:57;;;;;;;51.92;48.33;;;;;;;3.49;100.00;102172.72;4954451;28;20059;-80
2021/10/02 04:09:26;;;;;;;55.55;52.08;;;;;;;3.25;100.00;102173.72;4955523;28;20051;-80
2021/10/02 04:11:53;;;;;;;53.30;50.03;;;;;;;3.53;100.00;102171.50;4948441;29;20059;-80
2021/10/02 04:14:20;;;;;;;54.10;50.35;;;;;;;3.49;100.00;102163.03;4954140;28;20496;-80
2021/10/02 04:16:48;;;;;;;52.55;49.15;;;;;;;3.26;100.00;102174.56;4959099;29;20059;-81
2021/10/02 04:19:15;;;;;;;49.15;45.95;;;;;;;3.32;100.00;102168.81;4959149;28;20440;-81
2021/10/02 04:21:42;;;;;;;51.40;47.95;;;;;;;3.11;100.00;102174.81;4954128;28;20066;-80
2021/10/02 04:24:09;;;;;;;52.30;48.72;;;;;;;3.23;100.00;102173.00;4948272;28;20051;-81
2021/10/02 04:26:36;;;;;;;51.50;48.20;;;;;;;3.18;100.00;102168.13;4943249;29;20567;-82
2021/10/02 04:29:04;;;;;;;49.80;45.72;;;;;;;3.17;100.00;102176.13;4951582;28;20055;-80
2021/10/02 04:31:30;;;;;;;49.05;45.42;;;;;;;3.02;100.00;102178.16;4955146;28;20059;-80
2021/10/02 04:33:58;;;;;;;45.35;41.88;;;;;;;3.08;100.00;102182.94;4957958;28;20067;-81
2021/10/02 04:36:25;;;;;;;46.13;42.75;;;;;;;2.89;100.00;102177.47;4953984;28;20117;-80
2021/10/02 04:38:53;;;;;;;44.45;41.03;;;;;;;3.09;100.00;102184.63;4947300;28;20479;-80
2021/10/02 04:41:21;;;;;;;45.10;42.05;;;;;;;2.98;100.00;102179.38;4957971;28;20051;-80
2021/10/02 04:43:48;;;;;;;44.63;41.45;;;;;;;2.85;100.00;102181.31;4950108;29;20119;-80
2021/10/02 04:46:16;;;;;;;43.08;39.75;;;;;;;2.90;100.00;102181.75;4951502;28;20055;-80
2021/10/02 04:48:43;;;;;;;43.90;40.85;;;;;;;2.79;100.00;102192.28;4951324;29;20129;-80
2021/10/02 04:51:11;;;;;;;45.40;42.15;;;;;;;3.03;100.00;102192.97;4950419;28;20047;-80
2021/10/02 04:53:39;;;;;;;48.75;45.47;;;;;;;2.48;100.00;102189.34;4943298;28;20056;-81
2021/10/02 04:56:09;;;;;;;44.90;41.60;;;;;;;2.94;100.00;102188.44;4954488;28;20051;-80
2021/10/02 04:58:36;;;;;;;39.72;36.65;;;;;;;6.69;100.00;102191.31;4955208;28;20142;-79
2021/10/02 05:01:04;;;;;;;37.20;34.80;;;;;;;4.26;100.00;102186.47;4956338;28;20106;-80
2021/10/02 05:03:31;;;;;;;39.92;37.15;;;;;;;2.95;100.00;102182.25;4952475;28;20082;-80
2021/10/02 05:05:57;;;;;;;49.97;45.55;;;;;;;3.10;100.00;102186.28;4958074;29;20070;-80
2021/10/02 05:08:25;;;;;;;44.00;40.67;;;;;;;3.43;100.00;102189.81;4955962;28;20055;-80
2021/10/02 05:10:52;;;;;;;44.60;40.95;;;;;;;3.37;100.00;102195.56;4955896;28;20131;-80
2021/10/02 05:13:19;;;;;;;41.67;38.63;;;;;;;3.63;100.00;102182.94;4949968;28;20043;-81
2021/10/02 05:15:46;;;;;;;42.20;39.25;;;;;;;3.66;100.00;102188.78;4957700;29;20110;-81
2021/10/02 05:18:13;;;;;;;46.33;43.15;;;;;;;3.63;100.00;102186.41;4952944;28;20059;-80
2021/10/02 05:20:39;;;;;;;47.28;43.75;;;;;;;3.73;100.00;102188.28;4949306;29;20114;-81
2021/10/02 05:23:07;;;;;;;45.03;41.65;;;;;;;3.88;100.00;102195.75;4950426;28;20114;-81
2021/10/02 05:25:35;;;;;;;42.03;38.78;;;;;;;4.13;100.00;102193.72;4949003;28;20052;-80
2021/10/02 05:28:02;;;;;;;41.20;38.33;;;;;;;4.09;100.00;102193.16;4956868;28;20055;-82
2021/10/02 05:30:29;;;;;;;41.67;38.67;;;;;;;3.98;100.00;102192.38;4956702;29;20114;-80
2021/10/02 05:32:55;;;;;;;43.80;40.47;;;;;;;4.06;100.00;102193.41;4957005;28;20058;-79
2021/10/02 05:35:22;;;;;;;41.17;38.15;;;;;;;3.74;100.00;102189.94;4958098;28;20460;-80
2021/10/02 05:37:49;;;;;;;44.85;41.83;;;;;;;7.37;100.00;102185.69;4956379;28;20088;-79
2021/10/02 05:40:17;;;;;;;39.75;36.80;;;;;;;5.20;100.00;102181.06;4956017;28;20047;-81
2021/10/02 05:42:45;;;;;;;46.30;42.90;;;;;;;4.72;100.00;102190.47;4947963;29;20404;-79
2021/10/02 05:45:12;;;;;;;41.55;38.45;;;;;;;5.14;100.00;102184.25;4957164;28;20095;-81
2021/10/02 05:47:38;;;;;;;44.38;41.00;;;;;;;5.01;100.00;102189.75;4957174;28;20051;-79
2021/10/02 05:50:06;;;;;;;42.55;39.10;;;;;;;5.17;100.00;102187.44;4952087;28;20054;-83
2021/10/02 05:52:34;;;;;;;41.60;38.00;;;;;;;5.53;100.00;102193.06;4939331;28;20083;-80
2021/10/02 05:55:01;;;;;;;39.67;36.28;;;;;;;5.79;100.00;102193.38;4956992;29;20059;-81
2021/10/02 05:57:28;;;;;;;36.80;34.00;;;;;;;6.37;100.00;102203.06;4951396;28;20424;-80
2021/10/02 05:59:56;;;;;;;39.13;35.70;;;;;;;6.12;100.00;102193.94;4949177;28;20055;-80
2021/10/02 06:02:23;;;;;;;39.42;35.97;;;;;;;6.47;100.00;102193.31;4947536;28;20066;-79
2021/10/02 06:04:50;;;;;;;41.28;37.53;;;;;;;6.43;100.00;102203.31;4947902;28;20126;-81
2021/10/02 06:07:16;;;;;;;42.28;38.50;;;;;;;6.50;100.00;102195.66;4941734;29;20059;-80
2021/10/02 06:09:43;;;;;;;47.28;42.38;;;;;;;6.57;100.00;102202.06;4949843;28;20051;-81
2021/10/02 06:12:10;;;;;;;41.20;37.33;;;;;;;6.73;100.00;102190.88;4953669;28;20047;-80
2021/10/02 06:14:37;;;;;;;46.30;41.72;;;;;;;6.57;100.00;102202.06;4952037;28;20054;-80
2021/10/02 06:17:05;;;;;;;46.53;41.97;;;;;;;6.57;100.00;102196.78;4940126;29;20118;-80
2021/10/02 06:19:32;;;;;;;41.45;37.80;;;;;;;6.78;100.00;102206.31;4947373;29;20051;-80
2021/10/02 06:21:59;;;;;;;45.72;41.40;;;;;;;6.52;100.00;102206.09;4947435;28;20119;-80
2021/10/02 06:24:26;;;;;;;44.95;40.30;;;;;;;7.08;100.00;102208.69;4951819;28;20516;-79
2021/10/02 06:26:53;;;;;;;44.88;40.95;;;;;;;7.22;100.00;102206.50;4947172;28;20129;-80
2021/10/02 06:29:20;;;;;;;40.92;37.33;;;;;;;7.43;100.00;102208.91;4951637;28;20062;-79
2021/10/02 06:31:47;;;;;;;41.35;37.97;;;;;;;7.44;100.00;102205.25;4951637;28;20058;-79
2021/10/02 06:34:15;;;;;;;40.78;37.17;;;;;;;7.21;100.00;102210.16;4951868;28;20117;-82
2021/10/02 06:36:42;;;;;;;40.97;37.53;;;;;;;8.14;100.00;102216.84;4948196;29;20062;-80
2021/10/02 06:39:09;;;;;;;41.05;37.28;;;;;;;8.39;100.00;102214.41;4951769;28;20062;-80
2021/10/02 06:41:36;;;;;;;48.17;43.20;;;;;;;8.74;100.00;102207.34;4951266;28;20055;-79
2021/10/02 06:44:03;;;;;;;44.83;40.90;;;;;;;9.23;100.00;102205.75;4951620;28;20059;-80
2021/10/02 06:46:30;;;;;;;47.53;43.42;;;;;;;9.44;100.00;102205.31;4947719;28;20123;-79
2021/10/02 06:48:57;;;;;;;44.67;40.65;;;;;;;9.60;100.00;102210.66;4950808;28;20062;-80
2021/10/02 06:51:25;;;;;;;40.95;37.75;;;;;;;9.99;100.00;102206.56;4956203;29;20062;-79
2021/10/02 06:53:52;;;;;;;41.38;37.47;;;;;;;10.77;100.00;102203.28;4955852;28;20051;-80
2021/10/02 06:56:19;;;;;;;38.20;35.05;;;;;;;10.76;100.00;102194.50;4955337;28;20122;-80
2021/10/02 06:58:45;;;;;;;40.25;37.05;;;;;;;10.88;100.00;102197.63;4955419;28;20047;-81
2021/10/02 07:01:12;;;;;;;40.28;36.55;;;;;;;11.59;100.00;102198.44;4955949;28;20070;-79
2021/10/02 07:03:39;;;;;;;40.95;37.45;;;;;;;11.56;100.00;102193.47;4955109;28;20468;-80
2021/10/02 07:06:06;;;;;;;39.45;35.90;;;;;;;12.30;100.00;102195.56;4945452;29;20473;-80
2021/10/02 07:08:34;;;;;;;40.67;37.38;;;;;;;12.22;100.00;102195.63;4940289;28;20127;-82
2021/10/02 07:11:01;;;;;;;36.95;33.72;;;;;;;12.90;100.00;102194.56;4951285;28;20110;-80
2021/10/02 07:13:27;;;;;;;37.05;34.20;;;;;;;12.96;100.00;102187.69;4954755;28;20055;-80
2021/10/02 07:15:54;;;;;;;38.03;34.63;;;;;;;13.51;100.00;102184.44;4945103;29;20118;-81
2021/10/02 07:18:21;;;;;;;36.83;33.97;;;;;;;13.65;100.00;102192.59;4947209;28;20134;-79
2021/10/02 07:20:48;;;;;;;34.70;31.88;;;;;;;13.61;100.00;102184.13;4954761;29;20043;-79
2021/10/02 07:23:19;;;;;;;36.25;33.28;;;;;;;13.92;100.00;102177.66;4953565;28;20122;-79
2021/10/02 07:25:47;;;;;;;33.85;31.13;;;;;;;14.05;100.00;102191.09;4948410;28;20051;-78
2021/10/02 07:28:14;;;;;;;35.67;32.25;;;;;;;14.83;100.00;102185.69;4947296;28;20066;-76
2021/10/02 07:30:41;;;;;;;36.78;33.50;;;;;;;15.59;100.00;102174.81;4945506;28;20500;-79
2021/10/02 07:33:08;;;;;;;38.53;35.33;;;;;;;16.23;100.00;102186.81;4955090;29;20147;-76
2021/10/02 07:35:35;;;;;;;33.10;30.52;;;;;;;15.42;100.00;102178.88;4956055;28;20051;-79
2021/10/02 07:38:02;;;;;;;34.22;31.85;;;;;;;15.77;99.05;102185.78;4955663;29;20110;-78
2021/10/02 07:40:29;;;;;;;35.70;33.20;;;;;;;16.97;95.37;102187.47;4955472;28;20062;-78
2021/10/02 07:42:59;;;;;;;35.25;32.45;;;;;;;16.95;88.57;102187.69;4954551;28;20134;-79
2021/10/02 07:45:26;;;;;;;34.65;31.90;;;;;;;17.14;85.00;102181.41;4950414;28;20047;-79
2021/10/02 07:47:54;;;;;;;33.90;31.48;;;;;;;16.94;87.78;102177.97;4950028;28;20059;-79
2021/10/02 07:50:23;;;;;;;33.15;31.02;;;;;;;17.13;81.58;102162.84;4950168;28;20532;-79
2021/10/02 07:52:51;;;;;;;32.00;29.17;;;;;;;16.88;81.98;102173.47;4945432;28;20059;-79
2021/10/02 07:55:18;;;;;;;32.05;29.70;;;;;;;16.70;86.25;102174.09;4954803;28;20151;-79
2021/10/02 07:57:47;;;;;;;32.05;29.75;;;;;;;16.73;85.65;102171.00;4946676;29;20047;-80
2021/10/02 08:00:18;;;;;;;35.72;32.45;;;;;;;17.76;74.70;102170.06;4954602;28;20043;-79
2021/10/02 08:02:46;;;;;;;35.85;32.50;;;;;;;18.00;73.91;102157.69;4953884;28;20059;-80
2021/10/02 08:05:14;;;;;;;35.55;32.40;;;;;;;18.18;71.83;102165.81;4950600;28;20055;-78
2021/10/02 08:07:42;;;;;;;31.60;29.30;;;;;;;18.61;72.83;102158.75;4937249;28;20095;-80
2021/10/02 08:10:11;;;;;;;32.08;29.73;;;;;;;18.56;72.97;102162.13;4946396;29;20063;-80
2021/10/02 08:12:38;;;;;;;33.65;31.05;;;;;;;19.30;67.02;102154.78;4954313;28;20062;-78
2021/10/02 08:15:06;;;;;;;34.28;31.30;;;;;;;19.51;63.65;102148.03;4954245;28;20054;-79
2021/10/02 08:17:37;;;;;;;32.72;30.02;;;;;;;19.79;61.28;102138.50;4954464;28;20460;-78
2021/10/02 08:20:08;;;;;;;33.97;31.40;;;;;;;19.28;59.24;102151.50;4950853;28;20121;-79
2021/10/02 08:22:39;;;;;;;33.07;30.87;;;;;;;18.28;60.74;102143.81;4944099;28;20106;-81
2021/10/02 08:25:07;;;;;;;33.63;31.13;;;;;;;18.02;66.02;102144.88;4954579;29;20145;-79
2021/10/02 08:27:34;;;;;;;33.63;31.02;;;;;;;18.39;64.50;102144.91;4948063;28;20113;-81
2021/10/02 08:30:01;;;;;;;34.40;31.70;;;;;;;19.41;65.45;102143.22;4952243;28;20082;-79
2021/10/02 08:32:28;;;;;;;33.47;30.65;;;;;;;19.48;58.30;102142.28;4955232;28;20086;-81
2021/10/02 08:34:57;;;;;;;80.82;72.97;;;;;;;19.31;59.77;102144.84;4954636;28;20134;-80
2021/10/02 08:37:23;;;;;;;56.30;51.85;;;;;;;19.17;57.61;102146.88;4954799;29;20051;-79
2021/10/02 08:39:50;;;;;;;57.97;53.33;;;;;;;19.02;63.17;102141.91;4954155;28;20051;-79
2021/10/02 08:42:19;;;;;;;62.50;56.80;;;;;;;20.26;58.34;102139.31;4951078;28;20106;-79
2021/10/02 08:44:47;;;;;;;64.90;58.47;;;;;;;19.10;58.03;102135.41;4953511;28;20058;-79
2021/10/02 08:47:14;;;;;;;64.65;58.63;;;;;;;19.83;58.19;102135.13;4949402;28;20062;-78
2021/10/02 08:49:45;;;;;;;62.85;56.90;;;;;;;19.55;58.38;102134.94;4949079;28;20051;-80
2021/10/02 08:52:15;;;;;;;64.03;58.17;;;;;;;20.53;55.49;102133.47;4943366;29;20051;-78
2021/10/02 08:54:44;;;;;;;62.17;56.40;;;;;;;20.73;55.49;102128.47;4955120;28;20451;-78
2021/10/02 08:57:12;;;;;;;64.57;58.55;;;;;;;19.77;56.34;102116.38;4957424;28;20055;-79
2021/10/02 08:59:40;;;;;;;33.33;30.60;;;;;;;21.51;52.15;102118.00;4953528;28;20055;-78
2021/10/02 09:02:07;;;;;;;32.85;30.17;;;;;;;21.73;50.38;102110.81;4952430;28;20464;-80
2021/10/02 09:04:34;;;;;;;32.92;30.08;;;;;;;19.95;51.73;102127.03;4953247;28;20122;-79
2021/10/02 09:07:02;;;;;;;34.72;31.63;;;;;;;19.57;53.97;102122.84;4944620;29;20460;-78
2021/10/02 09:09:31;;;;;;;32.42;30.02;;;;;;;20.32;53.75;102119.50;4949592;28;20147;-79
2021/10/02 09:11:58;;;;;;;30.80;28.38;;;;;;;20.27;50.97;102118.56;4953897;28;20063;-80
2021/10/02 09:14:24;;;;;;;32.35;29.83;;;;;;;19.26;52.87;102109.69;4957787;28;20064;-79
2021/10/02 09:16:51;;;;;;;31.08;28.38;;;;;;;19.61;53.39;102113.28;4958122;29;20465;-80
2021/10/02 09:19:18;;;;;;;30.05;27.73;;;;;;;20.17;51.39;102112.94;4951588;28;20117;-79
2021/10/02 09:21:54;;;;;;;31.52;29.30;;;;;;;20.32;48.94;102111.41;4949977;28;20083;-80
2021/10/02 09:24:22;;;;;;;32.58;30.17;;;;;;;20.48;48.40;102107.13;4952951;28;20463;-79
2021/10/02 09:26:51;;;;;;;32.03;29.55;;;;;;;19.75;51.64;102111.19;4953053;28;20051;-79
2021/10/02 09:29:18;;;;;;;32.28;30.05;;;;;;;20.40;49.25;102115.63;4952607;28;20059;-79
2021/10/02 09:31:45;;;;;;;34.15;31.77;;;;;;;20.83;48.50;102100.03;4956625;28;20114;-80
2021/10/02 09:34:23;;;;;;;31.45;29.35;;;;;;;20.40;49.05;102098.63;4956904;28;20138;-78
2021/10/02 09:36:50;;;;;;;29.40;27.20;;;;;;;20.39;47.77;102103.16;4947068;29;20058;-78
2021/10/02 09:39:17;;;;;;;31.50;29.17;;;;;;;21.24;48.04;102086.22;4957910;28;20091;-78
2021/10/02 09:41:48;;;;;;;32.03;29.58;;;;;;;20.76;47.63;102092.91;4956444;28;20043;-78
2021/10/02 09:44:24;;;;;;;32.28;29.48;;;;;;;20.63;48.87;102093.16;4949529;28;20551;-79
2021/10/02 09:46:51;;;;;;;29.45;27.33;;;;;;;21.54;45.55;102076.97;4954022;28;20126;-79
2021/10/02 09:49:18;;;;;;;30.30;28.02;;;;;;;21.10;44.81;102084.06;4956570;28;20059;-78
2021/10/02 09:51:46;;;;;;;31.08;28.77;;;;;;;21.66;44.83;102074.19;4956683;29;20062;-80
2021/10/02 09:54:37;;;;;;;29.67;27.58;;;;;;;20.73;44.23;102079.88;4951631;28;20047;-79
2021/10/02 09:57:08;;;;;;;33.10;30.67;;;;;;;21.45;45.17;102078.44;4953035;28;20134;-78
2021/10/02 09:59:36;;;;;;;33.35;30.77;;;;;;;21.19;43.91;102072.59;4956255;28;20051;-81
2021/10/02 10:02:13;;;;;;;35.40;32.85;;;;;;;20.77;45.92;102080.22;4951489;28;20067;-80
2021/10/02 10:04:48;;;;;;;32.10;29.65;;;;;;;21.39;43.44;102069.47;4947812;28;20137;-80
2021/10/02 10:07:15;;;;;;;34.85;32.15;;;;;;;21.79;43.61;102068.44;4941583;29;20056;-79
2021/10/02 10:09:42;;;;;;;36.22;33.80;;;;;;;22.11;43.33;102068.59;4955472;28;20062;-78
2021/10/02 10:12:09;;;;;;;30.83;28.58;;;;;;;21.43;43.98;102059.78;4957005;28;20464;-78
2021/10/02 10:14:38;;;;;;;35.88;32.78;;;;;;;22.54;42.28;102048.06;4955990;28;20419;-78
2021/10/02 10:17:08;;;;;;;34.88;32.25;;;;;;;22.95;40.64;102059.34;4946669;28;20404;-78
2021/10/02 10:19:35;;;;;;;38.35;35.40;;;;;;;21.37;41.64;102054.56;4956318;29;20555;-80
2021/10/02 10:22:10;;;;;;;32.08;29.85;;;;;;;21.69;42.35;102054.75;4950106;28;20054;-79
2021/10/02 10:24:38;;;;;;;32.72;30.30;;;;;;;21.84;40.64;102056.88;4954146;28;20047;-79
2021/10/02 10:27:05;;;;;;;32.50;30.25;;;;;;;21.90;42.05;102045.88;4956033;28;20117;-79
2021/10/02 10:29:38;;;;;;;32.60;30.27;;;;;;;22.36;40.08;102038.38;4955554;28;20125;-78
2021/10/02 10:32:07;;;;;;;34.95;31.55;;;;;;;22.17;40.20;102040.56;4951328;28;20063;-78
2021/10/02 10:34:37;;;;;;;34.65;32.22;;;;;;;21.06;41.44;102035.13;4951482;28;20055;-81
2021/10/02 10:37:05;;;;;;;35.60;33.30;;;;;;;20.76;41.98;102030.81;4956337;29;20050;-80
2021/10/02 10:39:33;;;;;;;37.15;34.85;;;;;;;20.66;43.24;102032.50;4951430;28;20515;-77
2021/10/02 10:42:00;;;;;;;33.95;31.50;;;;;;;19.86;46.51;102037.59;4952075;28;20047;-79
2021/10/02 10:44:27;;;;;;;32.80;30.30;;;;;;;20.51;44.55;102039.19;4955503;28;20054;-79
2021/10/02 10:46:55;;;;;;;32.60;30.50;;;;;;;19.51;45.75;102029.47;4955621;28;20047;-80
2021/10/02 10:49:23;;;;;;;33.50;31.00;;;;;;;19.75;45.96;102034.91;4951072;28;20393;-78
2021/10/02 10:51:51;;;;;;;31.42;28.98;;;;;;;20.19;45.48;102030.75;4944155;29;20051;-79
2021/10/02 10:54:19;;;;;;;31.58;29.17;;;;;;;19.58;47.03;102029.38;4946101;28;20051;-80
2021/10/02 10:56:49;;;;;;;31.65;29.08;;;;;;;22.16;42.82;102019.16;4946673;28;20507;-78
2021/10/02 10:59:18;;;;;;;33.45;31.00;;;;;;;23.15;41.22;102012.66;4951820;28;20047;-79
2021/10/02 11:01:46;;;;;;;32.75;30.33;;;;;;;22.27;41.00;102014.72;4950960;28;20055;-79
2021/10/02 11:04:37;;;;;;;33.10;30.90;;;;;;;20.20;43.40;102015.38;4951525;28;20480;-77
2021/10/02 11:07:05;;;;;;;33.85;30.77;;;;;;;21.93;41.31;102009.41;4950511;29;20055;-83
2021/10/02 11:09:36;;;;;;;34.08;31.25;;;;;;;21.56;41.83;101999.16;4950880;28;20086;-78
2021/10/02 11:12:04;;;;;;;31.15;28.85;;;;;;;20.52;43.57;102003.09;4946554;28;20138;-78
2021/10/02 11:14:59;;;;;;;31.88;29.52;;;;;;;20.54;43.48;102006.34;4946722;28;20117;-77
2021/10/02 11:17:44;;;;;;;31.65;29.05;;;;;;;21.70;42.07;102002.34;4939557;28;20066;-78
2021/10/02 11:20:39;;;;;;;36.92;33.83;;;;;;;21.52;41.54;101998.03;4939508;28;20043;-78
2021/10/02 11:23:42;;;;;;;35.35;32.65;;;;;;;23.02;38.60;101986.78;4954399;28;20054;-79
2021/10/02 11:26:13;;;;;;;;;;;;;;;23.27;39.77;101988.88;4944550;28;20496;-79
2021/10/02 11:28:40;;;;;;;32.28;29.98;;;;;;;22.65;40.04;101978.56;4948384;28;19938;-80
2021/10/02 11:31:13;;;;;;;33.90;31.30;;;;;;;23.73;36.96;101972.91;4948079;28;20043;-78
2021/10/02 11:33:45;;;;;;;38.38;35.97;;;;;;;24.15;37.47;101976.63;4955775;29;20051;-79
2021/10/02 11:36:50;;;;;;;32.95;30.30;;;;;;;22.41;39.27;101968.06;4950777;28;20223;-82
2021/10/02 11:39:19;;;;;;;31.42;28.92;;;;;;;23.48;37.34;101973.56;4942289;28;20134;-80
2021/10/02 11:41:49;;;;;;;34.90;32.08;;;;;;;23.05;38.09;101969.19;4953516;28;20047;-82
2021/10/02 11:44:23;;;;;;;32.75;29.92;;;;;;;22.60;37.81;101971.25;4947747;28;20043;-80
2021/10/02 11:46:56;;;;;;;32.33;29.75;;;;;;;24.04;36.47;101962.19;4951150;28;20136;-79
2021/10/02 11:49:23;;;;;;;32.72;29.95;;;;;;;24.96;36.47;101956.09;4954520;28;20555;-79
2021/10/02 11:52:12;;;;;;;31.58;29.08;;;;;;;24.20;35.23;101963.03;4946546;29;20051;-79
2021/10/02 11:54:39;;;;;;;32.17;29.95;;;;;;;23.85;36.57;101961.03;4953160;28;20449;-78
2021/10/02 11:57:11;;;;;;;32.70;30.20;;;;;;;25.39;34.19;101943.00;4946193;28;20082;-79
2021/10/02 11:59:42;;;;;;;;;;;;;;;24.72;36.11;101953.94;4950782;28;20062;-77
2021/10/02 12:02:09;;;;;;;31.67;28.80;;;;;;;23.93;36.66;101958.63;4949951;28;20017;-80
2021/10/02 12:04:36;;;;;;;33.15;30.65;;;;;;;23.26;37.16;101954.72;4949984;28;20468;-77
2021/10/02 12:07:03;;;;;;;34.15;31.80;;;;;;;22.38;39.22;101949.63;4955355;29;20463;-78
2021/10/02 12:09:32;;;;;;;32.33;29.98;;;;;;;23.16;37.22;101960.06;4955618;28;20055;-78
2021/10/02 12:11:59;;;;;;;29.40;26.80;;;;;;;22.76;37.42;101947.81;4950144;28;20073;-79
2021/10/02 12:14:29;;;;;;;30.65;28.23;;;;;;;23.05;37.46;101948.31;4945998;28;20543;-79